createdAt,value
2022-11-29T00:01:15.031Z,-1.27
2022-11-29T00:03:43.313Z,-1.32
2022-11-29T00:06:12.823Z,-1.34
2022-11-29T00:08:41.627Z,-1.35
2022-11-29T00:11:11.534Z,-1.38
2022-11-29T00:13:39.830Z,-1.47
2022-11-29T00:16:09.325Z,-1.53
2022-11-29T00:18:37.415Z,-1.60
2022-11-29T00:21:06.817Z,-1.72
2022-11-29T00:23:35.418Z,-1.80
2022-11-29T00:26:07.581Z,-1.82
2022-11-29T00:28:36.067Z,-1.82
2022-11-29T00:31:20.902Z,-1.82
2022-11-29T00:33:49.330Z,-1.87
2022-11-29T00:36:17.712Z,-1.87
2022-11-29T00:38:45.841Z,-1.86
2022-11-29T00:41:14.077Z,-1.86
2022-11-29T00:43:42.258Z,-1.87
2022-11-29T00:46:11.103Z,-1.90
2022-11-29T00:48:39.307Z,-1.93
2022-11-29T00:51:07.822Z,-1.99
2022-11-29T00:53:36.820Z,-1.97
2022-11-29T00:56:05.779Z,-2.00
2022-11-29T00:58:33.694Z,-2.04
2022-11-29T01:01:01.580Z,-2.02
2022-11-29T01:03:29.658Z,-2.01
2022-11-29T01:06:02.005Z,-2.00
2022-11-29T01:08:30.124Z,-1.95
2022-11-29T01:11:18.863Z,-1.90
2022-11-29T01:13:47.153Z,-1.98
2022-11-29T01:16:15.932Z,-2.02
2022-11-29T01:18:44.038Z,-2.07
2022-11-29T01:21:16.113Z,-2.05
2022-11-29T01:23:44.552Z,-2.05
2022-11-29T01:26:14.399Z,-2.04
2022-11-29T01:28:42.798Z,-2.03
2022-11-29T01:31:12.465Z,-2.12
2022-11-29T01:33:40.797Z,-2.15
2022-11-29T01:36:10.093Z,-2.14
2022-11-29T01:38:38.170Z,-2.14
2022-11-29T01:41:07.787Z,-2.15
2022-11-29T01:43:53.169Z,-2.13
2022-11-29T01:46:21.313Z,-2.18
2022-11-29T01:48:50.458Z,-2.19
2022-11-29T01:51:18.532Z,-2.16
2022-11-29T01:53:46.440Z,-2.14
2022-11-29T01:56:15.242Z,-2.21
2022-11-29T01:58:44.607Z,-2.28
2022-11-29T02:01:13.049Z,-2.30
2022-11-29T02:03:41.270Z,-2.35
2022-11-29T02:06:09.248Z,-2.36
2022-11-29T02:08:38.558Z,-2.43
2022-11-29T02:11:15.545Z,-2.44
2022-11-29T02:14:16.902Z,-2.42
2022-11-29T02:17:03.621Z,-2.48
2022-11-29T02:19:31.490Z,-2.49
2022-11-29T02:22:06.642Z,-2.48
2022-11-29T02:24:56.739Z,-2.52
2022-11-29T02:27:33.667Z,-2.49
2022-11-29T02:30:05.271Z,-2.50
2022-11-29T02:32:50.964Z,-2.53
2022-11-29T02:35:18.839Z,-2.50
2022-11-29T02:38:04.682Z,-2.48
2022-11-29T02:40:51.350Z,-2.50
2022-11-29T02:43:38.268Z,-2.61
2022-11-29T02:46:17.956Z,-2.66
2022-11-29T02:48:46.100Z,-2.75
2022-11-29T02:51:17.981Z,-2.78
2022-11-29T02:54:04.474Z,-2.82
2022-11-29T02:56:40.115Z,-2.82
2022-11-29T02:59:19.887Z,-2.90
2022-11-29T03:01:53.991Z,-2.94
2022-11-29T03:04:31.263Z,-2.96
2022-11-29T03:06:59.076Z,-2.95
2022-11-29T03:09:26.943Z,-2.96
2022-11-29T03:12:02.117Z,-2.92
2022-11-29T03:14:49.007Z,-2.90
2022-11-29T03:17:21.792Z,-2.92
2022-11-29T03:19:59.132Z,-2.92
2022-11-29T03:22:45.953Z,-2.88
2022-11-29T03:25:16.518Z,-2.86
2022-11-29T03:27:48.827Z,-2.88
2022-11-29T03:30:18.369Z,-2.87
2022-11-29T03:32:46.202Z,-2.80
2022-11-29T03:35:36.790Z,-2.78
2022-11-29T03:38:23.444Z,-2.77
2022-11-29T03:41:14.757Z,-2.74
2022-11-29T03:43:45.925Z,-2.76
2022-11-29T03:46:26.625Z,-2.73
2022-11-29T03:48:59.463Z,-2.70
2022-11-29T03:51:33.487Z,-2.79
2022-11-29T03:54:09.658Z,-2.83
2022-11-29T03:56:39.595Z,-2.83
2022-11-29T03:59:19.899Z,-2.82
2022-11-29T04:01:47.763Z,-2.88
2022-11-29T04:04:34.599Z,-2.88
2022-11-29T04:07:10.414Z,-2.86
2022-11-29T04:09:57.315Z,-2.87
2022-11-29T04:12:44.648Z,-2.87
2022-11-29T04:15:24.768Z,-2.92
2022-11-29T04:18:28.371Z,-2.97
2022-11-29T04:21:14.847Z,-3.03
2022-11-29T04:23:59.083Z,-3.04
2022-11-29T04:26:30.878Z,-3.03
2022-11-29T04:29:04.659Z,-3.14
2022-11-29T04:31:32.592Z,-3.19
2022-11-29T04:34:06.531Z,-3.19
2022-11-29T04:36:43.776Z,-3.18
2022-11-29T04:39:30.246Z,-3.18
2022-11-29T04:42:15.017Z,-3.22
2022-11-29T04:44:51.491Z,-3.26
2022-11-29T04:47:43.570Z,-3.31
2022-11-29T04:50:33.830Z,-3.25
2022-11-29T04:53:20.876Z,-3.22
2022-11-29T04:56:09.921Z,-3.21
2022-11-29T04:58:41.895Z,-3.21
2022-11-29T05:01:17.989Z,-3.20
2022-11-29T05:03:55.452Z,-3.22
2022-11-29T05:06:32.845Z,-3.21
2022-11-29T05:09:04.007Z,-3.18
2022-11-29T05:11:31.847Z,-3.17
2022-11-29T05:14:05.975Z,-3.17
2022-11-29T05:17:00.109Z,-3.19
2022-11-29T05:19:48.556Z,-3.18
2022-11-29T05:22:25.756Z,-3.18
2022-11-29T05:25:12.451Z,-3.25
2022-11-29T05:27:46.632Z,-3.32
2022-11-29T05:30:16.195Z,-3.35
2022-11-29T05:33:03.427Z,-3.35
2022-11-29T05:35:43.615Z,-3.35
2022-11-29T05:38:30.412Z,-3.41
2022-11-29T05:40:58.545Z,-3.40
2022-11-29T05:43:29.116Z,-3.34
2022-11-29T05:46:08.361Z,-3.29
2022-11-29T05:48:45.807Z,-3.24
2022-11-29T05:51:29.857Z,-3.28
2022-11-29T05:54:00.788Z,-3.21
2022-11-29T05:56:48.947Z,-3.15
2022-11-29T05:59:22.873Z,-3.09
2022-11-29T06:01:50.865Z,-3.07
2022-11-29T06:04:18.744Z,-3.14
2022-11-29T06:06:55.075Z,-3.16
2022-11-29T06:09:41.670Z,-3.18
2022-11-29T06:12:18.155Z,-3.16
2022-11-29T06:14:57.099Z,-3.16
2022-11-29T06:17:43.895Z,-3.19
2022-11-29T06:20:23.644Z,-3.18
2022-11-29T06:22:51.566Z,-3.17
2022-11-29T06:25:28.557Z,-3.16
2022-11-29T06:28:05.332Z,-3.07
2022-11-29T06:30:53.923Z,-2.97
2022-11-29T06:33:34.393Z,-2.89
2022-11-29T06:36:14.774Z,-2.78
2022-11-29T06:38:42.715Z,-2.68
2022-11-29T06:41:14.578Z,-2.60
2022-11-29T06:43:42.754Z,-2.55
2022-11-29T06:46:15.850Z,-2.58
2022-11-29T06:48:51.797Z,-2.49
2022-11-29T06:51:27.125Z,-2.43
2022-11-29T06:54:21.406Z,-2.41
2022-11-29T06:56:53.003Z,-2.33
2022-11-29T06:59:39.114Z,-2.28
2022-11-29T07:02:27.447Z,-2.18
2022-11-29T07:05:18.461Z,-2.13
2022-11-29T07:07:47.340Z,-2.07
2022-11-29T07:10:19.326Z,-1.94
2022-11-29T07:12:49.360Z,-1.79
2022-11-29T07:15:19.273Z,-1.65
2022-11-29T07:17:47.293Z,-1.57
2022-11-29T07:20:15.135Z,-1.54
2022-11-29T07:22:45.999Z,-1.47
2022-11-29T07:25:26.253Z,-1.40
2022-11-29T07:28:06.197Z,-1.24
2022-11-29T07:30:53.555Z,-1.16
2022-11-29T07:33:30.026Z,-1.14
2022-11-29T07:36:05.748Z,-1.13
2022-11-29T07:38:51.796Z,-1.03
2022-11-29T07:41:20.222Z,-0.94
2022-11-29T07:44:03.555Z,-0.86
2022-11-29T07:46:31.771Z,-0.73
2022-11-29T07:48:59.792Z,-0.66
2022-11-29T07:51:28.173Z,-0.57
2022-11-29T07:53:56.176Z,-0.48
2022-11-29T07:56:24.219Z,-0.37
2022-11-29T07:58:52.206Z,-0.22
2022-11-29T08:01:20.194Z,-0.14
2022-11-29T08:03:49.049Z,-0.07
2022-11-29T08:06:23.078Z,-0.03
2022-11-29T08:08:51.235Z,0.05
2022-11-29T08:11:19.441Z,0.16
2022-11-29T08:13:47.861Z,0.27
2022-11-29T08:16:19.213Z,0.37
2022-11-29T08:18:47.163Z,0.47
2022-11-29T08:21:18.514Z,0.54
2022-11-29T08:23:47.751Z,0.63
2022-11-29T08:26:16.845Z,0.76
2022-11-29T08:28:44.968Z,0.88
2022-11-29T08:31:13.437Z,1.05
2022-11-29T08:33:42.869Z,1.16
2022-11-29T08:36:12.438Z,1.19
2022-11-29T08:38:40.701Z,1.22
2022-11-29T08:41:10.096Z,1.28
2022-11-29T08:43:38.268Z,1.35
2022-11-29T08:46:06.630Z,1.44
2022-11-29T08:48:35.843Z,1.49
2022-11-29T08:51:04.394Z,1.54
2022-11-29T08:53:41.547Z,1.54
2022-11-29T08:56:53.510Z,1.62
2022-11-29T08:59:01.718Z,1.65
2022-11-29T09:01:29.706Z,1.67
2022-11-29T09:04:02.777Z,1.75
2022-11-29T09:06:38.311Z,1.76
2022-11-29T09:09:06.431Z,1.84
2022-11-29T09:11:35.519Z,1.91
2022-11-29T09:14:05.336Z,2.00
2022-11-29T09:16:35.173Z,2.14
2022-11-29T09:19:04.036Z,2.18
2022-11-29T09:21:34.636Z,2.17
2022-11-29T09:24:06.571Z,2.17
2022-11-29T09:26:35.797Z,2.16
2022-11-29T09:29:06.326Z,2.20
2022-11-29T09:31:35.333Z,2.24
2022-11-29T09:34:04.041Z,2.29
2022-11-29T09:36:32.752Z,2.36
2022-11-29T09:39:02.855Z,2.40
2022-11-29T09:41:30.832Z,2.44
2022-11-29T09:44:12.531Z,2.46
2022-11-29T09:46:43.717Z,2.54
2022-11-29T09:49:11.993Z,2.69
2022-11-29T09:51:45.752Z,2.86
2022-11-29T09:54:22.996Z,3.01
2022-11-29T09:56:52.654Z,3.17
2022-11-29T09:59:25.128Z,3.31
2022-11-29T10:01:58.190Z,3.39
2022-11-29T10:04:28.895Z,3.45
2022-11-29T10:07:00.859Z,3.53
2022-11-29T10:09:43.569Z,3.61
2022-11-29T10:12:14.593Z,3.68
2022-11-29T10:14:54.188Z,3.69
2022-11-29T10:17:40.684Z,3.76
2022-11-29T10:20:29.290Z,3.79
2022-11-29T10:23:02.806Z,3.84
2022-11-29T10:25:34.827Z,3.92
2022-11-29T10:28:04.479Z,3.98
2022-11-29T10:30:34.956Z,4.07
2022-11-29T10:33:03.211Z,4.17
2022-11-29T10:35:31.663Z,4.24
2022-11-29T10:40:54.336Z,4.46
2022-11-29T10:43:24.924Z,4.56
2022-11-29T10:45:56.356Z,4.60
2022-11-29T10:48:27.597Z,4.63
2022-11-29T10:50:55.884Z,4.68
2022-11-29T10:53:28.411Z,4.74
2022-11-29T10:56:00.683Z,4.81
2022-11-29T10:58:30.267Z,4.83
2022-11-29T11:01:06.747Z,4.82
2022-11-29T11:03:42.963Z,4.86
2022-11-29T11:06:16.114Z,4.92
2022-11-29T11:08:48.794Z,4.92
2022-11-29T11:11:25.011Z,4.87
2022-11-29T11:14:04.232Z,4.84
2022-11-29T11:16:37.151Z,4.79
2022-11-29T11:19:24.655Z,4.72
2022-11-29T11:21:52.819Z,4.72
2022-11-29T11:24:27.120Z,4.74
2022-11-29T11:26:55.497Z,4.78
2022-11-29T11:29:26.183Z,4.80
2022-11-29T11:31:58.984Z,4.82
2022-11-29T11:34:34.368Z,4.84
2022-11-29T11:37:12.127Z,4.89
2022-11-29T11:39:40.222Z,4.96
2022-11-29T11:42:31.634Z,4.98
2022-11-29T11:45:00.735Z,5.00
2022-11-29T11:47:30.332Z,5.03
2022-11-29T11:50:04.426Z,5.06
2022-11-29T11:52:39.773Z,5.09
2022-11-29T11:55:21.482Z,5.14
2022-11-29T11:57:58.787Z,5.21
2022-11-29T12:01:02.382Z,5.27
2022-11-29T12:03:27.421Z,5.31
2022-11-29T12:05:58.102Z,5.35
2022-11-29T12:08:28.180Z,5.38
2022-11-29T12:11:02.682Z,5.37
2022-11-29T12:13:35.956Z,5.34
2022-11-29T12:16:08.076Z,5.27
2022-11-29T12:18:42.215Z,5.23
2022-11-29T12:21:14.362Z,5.25
2022-11-29T12:23:42.393Z,5.31
2022-11-29T12:26:13.664Z,5.41
2022-11-29T12:28:47.615Z,5.54
2022-11-29T12:31:18.707Z,5.66
2022-11-29T12:33:55.844Z,5.70
2022-11-29T12:36:42.152Z,5.69
2022-11-29T12:39:12.949Z,5.71
2022-11-29T12:41:52.458Z,5.68
2022-11-29T12:44:29.891Z,5.72
2022-11-29T12:50:05.174Z,5.93
2022-11-29T12:52:36.340Z,6.07
2022-11-29T12:55:40.171Z,6.17
2022-11-29T12:58:14.588Z,6.20
2022-11-29T13:01:15.423Z,6.21
2022-11-29T13:03:49.279Z,6.18
2022-11-29T13:06:23.211Z,6.15
2022-11-29T13:09:00.575Z,6.11
2022-11-29T13:11:36.685Z,6.07
2022-11-29T13:14:34.802Z,6.01
2022-11-29T13:16:59.265Z,5.95
2022-11-29T13:19:37.352Z,5.86
2022-11-29T13:22:11.745Z,5.80
2022-11-29T13:24:51.829Z,5.72
2022-11-29T13:27:23.503Z,5.66
2022-11-29T13:29:51.896Z,5.56
2022-11-29T13:32:40.183Z,5.47
2022-11-29T13:35:18.802Z,5.38
2022-11-29T13:37:59.231Z,5.31
2022-11-29T13:40:30.034Z,5.23
2022-11-29T13:43:06.744Z,5.18
2022-11-29T13:45:42.950Z,5.13
2022-11-29T13:48:29.139Z,5.06
2022-11-29T13:50:57.454Z,4.98
2022-11-29T13:53:30.696Z,4.91
2022-11-29T13:56:02.910Z,4.86
2022-11-29T13:58:39.284Z,4.78
2022-11-29T14:01:07.227Z,4.68
2022-11-29T14:03:35.148Z,4.61
2022-11-29T14:06:11.174Z,4.54
2022-11-29T14:09:10.369Z,4.47
2022-11-29T14:11:33.852Z,4.42
2022-11-29T14:14:10.392Z,4.38
2022-11-29T14:16:44.729Z,4.32
2022-11-29T14:19:21.382Z,4.25
2022-11-29T14:22:07.736Z,4.19
2022-11-29T14:24:35.869Z,4.12
2022-11-29T14:27:07.411Z,4.06
2022-11-29T14:29:47.870Z,4.02
2022-11-29T14:32:28.130Z,3.94
2022-11-29T14:34:56.209Z,3.87
2022-11-29T14:37:30.254Z,3.81
2022-11-29T14:40:00.311Z,3.74
2022-11-29T14:42:28.955Z,3.66
2022-11-29T14:45:07.138Z,3.58
2022-11-29T14:47:38.303Z,3.47
2022-11-29T14:50:09.600Z,3.39
2022-11-29T14:52:49.976Z,3.29
2022-11-29T14:55:17.870Z,3.24
2022-11-29T14:58:05.998Z,3.17
2022-11-29T15:00:53.091Z,3.11
2022-11-29T15:03:37.028Z,3.07
2022-11-29T15:06:11.095Z,2.96
2022-11-29T15:08:50.371Z,2.89
2022-11-29T15:11:18.506Z,2.80
2022-11-29T15:13:53.348Z,2.74
2022-11-29T15:16:35.402Z,2.66
2022-11-29T15:19:13.390Z,2.58
2022-11-29T15:21:50.540Z,2.52
2022-11-29T15:24:19.732Z,2.44
2022-11-29T15:27:15.255Z,2.36
2022-11-29T15:29:48.255Z,2.26
2022-11-29T15:32:21.171Z,2.19
2022-11-29T15:34:50.947Z,2.12
2022-11-29T15:37:23.730Z,2.06
2022-11-29T15:40:12.287Z,1.97
2022-11-29T15:42:50.777Z,1.90
2022-11-29T15:45:23.082Z,1.83
2022-11-29T15:47:51.488Z,1.76
2022-11-29T15:50:27.477Z,1.71
2022-11-29T15:52:58.368Z,1.66
2022-11-29T15:55:27.163Z,1.61
2022-11-29T15:57:57.795Z,1.56
2022-11-29T16:00:28.354Z,1.48
2022-11-29T16:03:04.308Z,1.39
2022-11-29T16:05:37.071Z,1.34
2022-11-29T16:08:08.296Z,1.31
2022-11-29T16:10:40.493Z,1.25
2022-11-29T16:13:28.285Z,1.17
2022-11-29T16:16:22.596Z,1.03
2022-11-29T16:18:51.007Z,0.94
2022-11-29T16:21:22.259Z,0.92
2022-11-29T16:23:50.327Z,0.89
2022-11-29T16:26:19.236Z,0.85
2022-11-29T16:28:48.624Z,0.80
2022-11-29T16:31:18.235Z,0.74
2022-11-29T16:33:47.658Z,0.70
2022-11-29T16:36:17.535Z,0.69
2022-11-29T16:38:46.982Z,0.68
2022-11-29T16:41:30.639Z,0.68
2022-11-29T16:43:58.800Z,0.64
2022-11-29T16:46:28.025Z,0.64
2022-11-29T16:48:57.152Z,0.60
2022-11-29T16:51:27.224Z,0.54
2022-11-29T16:53:56.016Z,0.48
2022-11-29T16:56:25.515Z,0.42
2022-11-29T16:59:26.040Z,0.37
2022-11-29T17:01:43.533Z,0.34
2022-11-29T17:04:11.764Z,0.29
2022-11-29T17:06:53.047Z,0.24
2022-11-29T17:09:27.175Z,0.22
2022-11-29T17:11:56.061Z,0.21
2022-11-29T17:14:24.149Z,0.19
2022-11-29T17:16:52.409Z,0.17
2022-11-29T17:19:23.088Z,0.15
2022-11-29T17:21:52.772Z,0.14
2022-11-29T17:24:21.735Z,0.14
2022-11-29T17:26:50.074Z,0.12
2022-11-29T17:29:18.834Z,0.09
2022-11-29T17:31:47.488Z,0.05
2022-11-29T17:34:15.526Z,0.01
2022-11-29T17:36:45.312Z,-0.08
2022-11-29T17:39:15.799Z,-0.18
2022-11-29T17:41:44.369Z,-0.24
2022-11-29T17:44:12.714Z,-0.27
2022-11-29T17:46:40.888Z,-0.28
2022-11-29T17:49:09.999Z,-0.34
2022-11-29T17:51:54.434Z,-0.36
2022-11-29T17:54:22.800Z,-0.38
2022-11-29T17:56:51.216Z,-0.38
2022-11-29T17:59:19.190Z,-0.36
2022-11-29T18:01:47.637Z,-0.36
2022-11-29T18:04:15.861Z,-0.40
2022-11-29T18:06:49.773Z,-0.41
2022-11-29T18:09:19.707Z,-0.44
2022-11-29T18:11:49.999Z,-0.47
2022-11-29T18:14:23.798Z,-0.47
2022-11-29T18:16:52.398Z,-0.48
2022-11-29T18:19:22.162Z,-0.47
2022-11-29T18:21:50.435Z,-0.49
2022-11-29T18:24:18.423Z,-0.54
2022-11-29T18:26:46.673Z,-0.55
2022-11-29T18:29:14.983Z,-0.56
2022-11-29T18:31:44.777Z,-0.60
2022-11-29T18:34:13.665Z,-0.67
2022-11-29T18:36:50.651Z,-0.73
2022-11-29T18:39:20.094Z,-0.77
2022-11-29T18:41:48.797Z,-0.79
2022-11-29T18:44:18.479Z,-0.85
2022-11-29T18:46:46.455Z,-0.91
2022-11-29T18:49:15.632Z,-0.95
2022-11-29T18:51:45.251Z,-0.96
2022-11-29T18:54:14.765Z,-1.01
2022-11-29T18:56:43.878Z,-1.16
2022-11-29T18:59:14.922Z,-1.20
2022-11-29T19:01:43.779Z,-1.19
2022-11-29T19:04:13.367Z,-1.21
2022-11-29T19:06:42.115Z,-1.21
2022-11-29T19:09:14.123Z,-1.25
2022-11-29T19:11:42.055Z,-1.26
2022-11-29T19:14:14.236Z,-1.24
2022-11-29T19:16:44.038Z,-1.28
2022-11-29T19:19:12.206Z,-1.29
2022-11-29T19:21:40.559Z,-1.31
2022-11-29T19:24:14.169Z,-1.30
2022-11-29T19:26:44.564Z,-1.30
2022-11-29T19:29:13.904Z,-1.26
2022-11-29T19:31:42.692Z,-1.21
2022-11-29T19:34:11.308Z,-1.19
2022-11-29T19:36:43.942Z,-1.20
2022-11-29T19:39:17.003Z,-1.22
2022-11-29T19:41:46.617Z,-1.25
2022-11-29T19:44:14.598Z,-1.23
2022-11-29T19:46:48.599Z,-1.21
2022-11-29T19:49:16.775Z,-1.21
2022-11-29T19:51:44.870Z,-1.20
2022-11-29T19:54:13.146Z,-1.22
2022-11-29T19:56:41.126Z,-1.25
2022-11-29T19:59:09.362Z,-1.26
2022-11-29T20:01:41.262Z,-1.29
2022-11-29T20:04:11.563Z,-1.29
2022-11-29T20:06:40.068Z,-1.29
2022-11-29T20:09:08.251Z,-1.32
2022-11-29T20:11:36.216Z,-1.40
2022-11-29T20:14:05.326Z,-1.45
2022-11-29T20:16:34.232Z,-1.45
2022-11-29T20:19:02.264Z,-1.45
2022-11-29T20:21:31.600Z,-1.46
2022-11-29T20:24:06.583Z,-1.47
2022-11-29T20:26:36.303Z,-1.45
2022-11-29T20:29:05.266Z,-1.42
2022-11-29T20:31:34.275Z,-1.43
2022-11-29T20:34:02.974Z,-1.49
2022-11-29T20:36:37.083Z,-1.54
2022-11-29T20:39:13.947Z,-1.59
2022-11-29T20:41:48.412Z,-1.60
2022-11-29T20:44:35.026Z,-1.62
2022-11-29T20:47:10.556Z,-1.57
2022-11-29T20:49:38.661Z,-1.57
2022-11-29T20:52:10.704Z,-1.57
2022-11-29T20:54:38.577Z,-1.58
2022-11-29T20:57:06.434Z,-1.60
2022-11-29T20:59:34.322Z,-1.64
2022-11-29T21:02:02.775Z,-1.69
2022-11-29T21:04:30.788Z,-1.70
2022-11-29T21:06:58.640Z,-1.72
2022-11-29T21:09:28.478Z,-1.73
2022-11-29T21:11:56.752Z,-1.69
2022-11-29T21:14:24.949Z,-1.70
2022-11-29T21:16:53.140Z,-1.70
2022-11-29T21:19:23.954Z,-1.73
2022-11-29T21:22:10.876Z,-1.68
2022-11-29T21:24:38.954Z,-1.63
2022-11-29T21:27:10.720Z,-1.63
2022-11-29T21:29:38.827Z,-1.63
2022-11-29T21:32:07.075Z,-1.62
2022-11-29T21:34:35.049Z,-1.61
2022-11-29T21:37:03.432Z,-1.72
2022-11-29T21:39:33.369Z,-1.75
2022-11-29T21:42:01.707Z,-1.85
2022-11-29T21:44:29.807Z,-1.88
2022-11-29T21:46:57.704Z,-1.89
2022-11-29T21:49:25.660Z,-1.86
2022-11-29T21:51:53.551Z,-1.90
2022-11-29T21:54:21.383Z,-1.99
2022-11-29T21:56:49.238Z,-2.01
2022-11-29T21:59:17.156Z,-2.02
2022-11-29T22:01:45.307Z,-2.01
2022-11-29T22:04:13.324Z,-2.02
2022-11-29T22:06:41.393Z,-2.04
2022-11-29T22:09:09.470Z,-2.08
2022-11-29T22:11:37.337Z,-2.09
2022-11-29T22:14:19.245Z,-2.10
2022-11-29T22:16:50.600Z,-2.19
2022-11-29T22:19:19.998Z,-2.27
2022-11-29T22:21:49.401Z,-2.24
2022-11-29T22:24:18.836Z,-2.25
2022-11-29T22:26:47.012Z,-2.26
2022-11-29T22:29:15.290Z,-2.25
2022-11-29T22:31:44.178Z,-2.28
2022-11-29T22:34:12.365Z,-2.30
2022-11-29T22:36:40.686Z,-2.32
2022-11-29T22:39:09.358Z,-2.41
2022-11-29T22:41:38.131Z,-2.44
2022-11-29T22:47:10.926Z,-2.41
2022-11-29T22:49:38.778Z,-2.42
2022-11-29T22:52:06.672Z,-2.35
2022-11-29T22:54:34.542Z,-2.34
2022-11-29T22:57:02.414Z,-2.31
2022-11-29T22:59:30.393Z,-2.28
2022-11-29T23:01:58.411Z,-2.32
2022-11-29T23:04:26.441Z,-2.32
2022-11-29T23:06:54.300Z,-2.33
2022-11-29T23:09:22.279Z,-2.38
2022-11-29T23:11:53.249Z,-2.36
2022-11-29T23:14:22.442Z,-2.32
2022-11-29T23:16:50.646Z,-2.28
2022-11-29T23:19:18.825Z,-2.32
2022-11-29T23:21:47.397Z,-2.30
2022-11-29T23:24:15.870Z,-2.29
2022-11-29T23:26:45.693Z,-2.28
2022-11-29T23:29:15.479Z,-2.28
2022-11-29T23:31:43.575Z,-2.32
2022-11-29T23:34:11.763Z,-2.39
2022-11-29T23:36:39.586Z,-2.49
2022-11-29T23:39:07.450Z,-2.68
2022-11-29T23:41:36.573Z,-2.71
2022-11-29T23:44:05.517Z,-2.74
2022-11-29T23:46:34.793Z,-2.69
2022-11-29T23:49:02.904Z,-2.68
2022-11-29T23:51:30.977Z,-2.64
2022-11-29T23:53:58.846Z,-2.63
2022-11-29T23:56:27.027Z,-2.63
2022-11-29T23:58:54.962Z,-2.64
